createdAt,value
2018-08-24T00:00:53.875Z,100139.00
2018-08-24T00:03:23.095Z,100143.00
2018-08-24T00:05:52.384Z,100135.00
2018-08-24T00:08:22.076Z,100136.00
2018-08-24T00:10:51.481Z,100134.00
2018-08-24T00:13:20.537Z,100145.00
2018-08-24T00:15:49.553Z,100142.00
2018-08-24T00:18:18.594Z,100137.00
2018-08-24T00:20:47.745Z,100133.00
2018-08-24T00:23:16.837Z,100131.00
2018-08-24T00:25:46.172Z,100130.00
2018-08-24T00:28:15.216Z,100127.00
2018-08-24T00:30:44.359Z,100124.00
2018-08-24T00:33:13.735Z,100118.00
2018-08-24T00:35:43.145Z,100116.00
2018-08-24T00:38:12.389Z,100125.00
2018-08-24T00:40:41.665Z,100105.00
2018-08-24T00:43:10.847Z,100102.00
2018-08-24T00:45:39.972Z,100103.00
2018-08-24T00:48:09.202Z,100102.00
2018-08-24T00:50:38.375Z,100088.00
2018-08-24T00:53:07.910Z,100089.00
2018-08-24T00:55:36.993Z,100079.00
2018-08-24T00:58:06.483Z,100082.00
2018-08-24T01:00:40.932Z,100083.00
2018-08-24T01:03:11.362Z,100079.00
2018-08-24T01:05:40.676Z,100079.00
2018-08-24T01:08:09.974Z,100080.00
2018-08-24T01:10:39.238Z,100091.00
2018-08-24T01:13:13.834Z,100097.00
2018-08-24T01:15:49.885Z,100096.00
2018-08-24T01:18:23.102Z,100102.00
2018-08-24T01:20:53.468Z,100099.00
2018-08-24T01:23:24.128Z,100109.00
2018-08-24T01:25:53.443Z,100098.00
2018-08-24T01:28:23.188Z,100107.00
2018-08-24T01:30:52.482Z,100107.00
2018-08-24T01:33:21.866Z,100104.00
2018-08-24T01:35:51.010Z,100101.00
2018-08-24T01:38:20.090Z,100096.00
2018-08-24T01:40:49.452Z,100097.00
2018-08-24T01:43:18.603Z,100100.00
2018-08-24T01:45:48.018Z,100097.00
2018-08-24T01:48:17.024Z,100091.00
2018-08-24T01:50:46.423Z,100079.00
2018-08-24T01:53:15.782Z,100084.00
2018-08-24T01:55:45.069Z,100083.00
2018-08-24T01:58:14.263Z,100070.00
2018-08-24T02:00:43.332Z,100068.00
2018-08-24T02:03:12.325Z,100070.00
2018-08-24T02:05:41.738Z,100079.00
2018-08-24T02:08:11.006Z,100079.00
2018-08-24T02:10:40.147Z,100078.00
2018-08-24T02:13:14.679Z,100080.00
2018-08-24T02:15:45.904Z,100084.00
2018-08-24T02:18:20.160Z,100087.00
2018-08-24T02:20:54.652Z,100095.00
2018-08-24T02:23:23.667Z,100098.00
2018-08-24T02:25:52.969Z,100100.00
2018-08-24T02:28:22.260Z,100095.00
2018-08-24T02:30:51.618Z,100106.00
2018-08-24T02:33:20.902Z,100106.00
2018-08-24T02:35:50.146Z,100098.00
2018-08-24T02:38:19.240Z,100091.00
2018-08-24T02:40:48.496Z,100087.00
2018-08-24T02:43:17.684Z,100094.00
2018-08-24T02:45:46.702Z,100090.00
2018-08-24T02:48:15.916Z,100082.00
2018-08-24T02:50:45.322Z,100090.00
2018-08-24T02:53:14.618Z,100088.00
2018-08-24T02:55:44.344Z,100078.00
2018-08-24T02:58:13.708Z,100069.00
2018-08-24T03:00:43.040Z,100069.00
2018-08-24T03:03:12.096Z,100057.00
2018-08-24T03:05:41.272Z,100059.00
2018-08-24T03:08:10.334Z,100062.00
2018-08-24T03:10:39.370Z,100056.00
2018-08-24T03:13:08.909Z,100058.00
2018-08-24T03:15:38.362Z,100056.00
2018-08-24T03:18:07.621Z,100060.00
2018-08-24T03:20:36.744Z,100066.00
2018-08-24T03:23:06.154Z,100061.00
2018-08-24T03:25:35.319Z,100068.00
2018-08-24T03:28:04.488Z,100063.00
2018-08-24T03:30:33.666Z,100058.00
2018-08-24T03:33:03.019Z,100049.00
2018-08-24T03:35:32.017Z,100041.00
2018-08-24T03:38:01.188Z,100047.00
2018-08-24T03:40:30.392Z,100040.00
2018-08-24T03:42:59.692Z,100039.00
2018-08-24T03:45:29.234Z,100048.00
2018-08-24T03:47:58.299Z,100043.00
2018-08-24T03:50:27.430Z,100038.00
2018-08-24T03:52:56.767Z,100048.00
2018-08-24T03:55:25.944Z,100049.00
2018-08-24T03:57:55.174Z,100048.00
2018-08-24T04:00:24.298Z,100049.00
2018-08-24T04:02:53.752Z,100053.00
2018-08-24T04:05:22.920Z,100049.00
2018-08-24T04:07:51.958Z,100051.00
2018-08-24T04:10:21.178Z,100053.00
2018-08-24T04:12:50.316Z,100057.00
2018-08-24T04:15:19.395Z,100058.00
2018-08-24T04:17:48.944Z,100058.00
2018-08-24T04:20:18.025Z,100062.00
2018-08-24T04:22:47.170Z,100063.00
2018-08-24T04:25:16.530Z,100066.00
2018-08-24T04:27:45.896Z,100066.00
2018-08-24T04:30:15.338Z,100067.00
2018-08-24T04:32:47.184Z,100062.00
2018-08-24T04:35:16.430Z,100073.00
2018-08-24T04:37:46.632Z,100080.00
2018-08-24T04:40:16.772Z,100084.00
2018-08-24T04:42:47.538Z,100064.00
2018-08-24T04:45:17.532Z,100066.00
2018-08-24T04:47:48.289Z,100063.00
2018-08-24T04:50:18.313Z,100065.00
2018-08-24T04:52:48.334Z,100062.00
2018-08-24T04:55:19.314Z,100064.00
2018-08-24T04:57:49.682Z,100073.00
2018-08-24T05:00:20.232Z,100062.00
2018-08-24T05:02:50.342Z,100063.00
2018-08-24T05:05:20.236Z,100074.00
2018-08-24T05:07:50.199Z,100066.00
2018-08-24T05:10:20.820Z,100074.00
2018-08-24T05:12:50.758Z,100090.00
2018-08-24T05:15:21.316Z,100094.00
2018-08-24T05:17:50.816Z,100085.00
2018-08-24T05:20:20.734Z,100083.00
2018-08-24T05:22:52.426Z,100088.00
2018-08-24T05:25:23.113Z,100086.00
2018-08-24T05:27:52.832Z,100089.00
2018-08-24T05:30:23.920Z,100094.00
2018-08-24T05:32:53.907Z,100089.00
2018-08-24T05:35:24.278Z,100083.00
2018-08-24T05:37:55.589Z,100093.00
2018-08-24T05:40:26.300Z,100092.00
2018-08-24T05:42:56.208Z,100098.00
2018-08-24T05:45:26.238Z,100100.00
2018-08-24T05:47:56.406Z,100095.00
2018-08-24T05:50:26.859Z,100091.00
2018-08-24T05:52:57.223Z,100112.00
2018-08-24T05:55:27.221Z,100107.00
2018-08-24T05:57:57.594Z,100117.00
2018-08-24T06:00:32.545Z,100118.00
2018-08-24T06:03:02.948Z,100125.00
2018-08-24T06:05:33.284Z,100124.00
2018-08-24T06:08:03.321Z,100130.00
2018-08-24T06:10:32.989Z,100138.00
2018-08-24T06:13:03.723Z,100143.00
2018-08-24T06:15:33.573Z,100143.00
2018-08-24T06:18:04.463Z,100147.00
2018-08-24T06:20:34.610Z,100147.00
2018-08-24T06:23:05.033Z,100147.00
2018-08-24T06:25:35.429Z,100150.00
2018-08-24T06:28:06.418Z,100144.00
2018-08-24T06:30:36.233Z,100151.00
2018-08-24T06:33:06.507Z,100151.00
2018-08-24T06:35:36.463Z,100139.00
2018-08-24T06:38:06.355Z,100145.00
2018-08-24T06:40:36.372Z,100147.00
2018-08-24T06:43:06.226Z,100154.00
2018-08-24T06:45:36.531Z,100152.00
2018-08-24T06:48:06.859Z,100152.00
2018-08-24T06:50:37.090Z,100167.00
2018-08-24T06:53:07.666Z,100162.00
2018-08-24T06:55:37.811Z,100158.00
2018-08-24T06:58:08.381Z,100165.00
2018-08-24T07:00:38.613Z,100166.00
2018-08-24T07:03:08.856Z,100159.00
2018-08-24T07:05:38.850Z,100166.00
2018-08-24T07:08:08.739Z,100173.00
2018-08-24T07:10:38.701Z,100174.00
2018-08-24T07:13:10.215Z,100173.00
2018-08-24T07:15:41.139Z,100182.00
2018-08-24T07:18:11.401Z,100180.00
2018-08-24T07:20:41.297Z,100177.00
2018-08-24T07:23:11.021Z,100183.00
2018-08-24T07:25:40.804Z,100188.00
2018-08-24T07:28:10.370Z,100186.00
2018-08-24T07:30:40.296Z,100186.00
2018-08-24T07:33:11.308Z,100198.00
2018-08-24T07:35:43.262Z,100196.00
2018-08-24T07:38:13.884Z,100193.00
2018-08-24T07:40:44.408Z,100206.00
2018-08-24T07:43:15.023Z,100203.00
2018-08-24T07:45:45.502Z,100210.00
2018-08-24T07:48:15.800Z,100205.00
2018-08-24T07:50:45.356Z,100202.00
2018-08-24T07:53:15.164Z,100205.00
2018-08-24T07:55:45.146Z,100210.00
2018-08-24T07:58:15.642Z,100211.00
2018-08-24T08:00:45.483Z,100216.00
2018-08-24T08:03:15.513Z,100213.00
2018-08-24T08:05:45.144Z,100224.00
2018-08-24T08:08:15.560Z,100211.00
2018-08-24T08:10:45.804Z,100211.00
2018-08-24T08:13:15.519Z,100222.00
2018-08-24T08:15:45.368Z,100206.00
2018-08-24T08:18:15.646Z,100208.00
2018-08-24T08:20:45.576Z,100213.00
2018-08-24T08:23:15.094Z,100220.00
2018-08-24T08:25:45.688Z,100230.00
2018-08-24T08:28:15.438Z,100233.00
2018-08-24T08:30:45.297Z,100232.00
2018-08-24T08:33:15.765Z,100229.00
2018-08-24T08:35:46.502Z,100228.00
2018-08-24T08:38:18.295Z,100217.00
2018-08-24T08:40:49.753Z,100231.00
2018-08-24T08:43:20.217Z,100224.00
2018-08-24T08:45:50.890Z,100229.00
2018-08-24T08:48:20.582Z,100215.00
2018-08-24T08:50:50.496Z,100205.00
2018-08-24T08:53:20.417Z,100212.00
2018-08-24T08:55:50.924Z,100235.00
2018-08-24T08:58:20.850Z,100226.00
2018-08-24T09:00:51.442Z,100230.00
2018-08-24T09:03:21.610Z,100232.00
2018-08-24T09:05:52.118Z,100208.00
2018-08-24T09:08:23.092Z,100223.00
2018-08-24T09:10:52.792Z,100220.00
2018-08-24T09:13:22.766Z,100221.00
2018-08-24T09:15:53.149Z,100212.00
2018-08-24T09:18:28.372Z,100215.00
2018-08-24T09:21:03.046Z,100205.00
2018-08-24T09:23:38.534Z,100214.00
2018-08-24T09:28:15.408Z,100213.00
2018-08-24T09:30:55.502Z,100199.00
2018-08-24T09:33:25.393Z,100199.00
2018-08-24T09:35:55.684Z,100199.00
2018-08-24T09:38:25.889Z,100201.00
2018-08-24T09:40:58.672Z,100198.00
2018-08-24T09:43:34.035Z,100197.00
2018-08-24T09:46:03.960Z,100194.00
2018-08-24T09:48:39.282Z,100185.00
2018-08-24T09:51:14.623Z,100200.00
2018-08-24T09:53:50.045Z,100194.00
2018-08-24T09:56:22.076Z,100183.00
2018-08-24T09:58:52.492Z,100198.00
2018-08-24T10:01:27.912Z,100194.00
2018-08-24T10:04:02.796Z,100180.00
2018-08-24T10:06:37.968Z,100181.00
2018-08-24T10:09:10.839Z,100187.00
2018-08-24T10:11:41.294Z,100200.00
2018-08-24T10:14:11.973Z,100196.00
2018-08-24T10:16:42.244Z,100198.00
2018-08-24T10:19:13.355Z,100186.00
2018-08-24T10:21:43.604Z,100182.00
2018-08-24T10:24:13.173Z,100183.00
2018-08-24T10:26:43.913Z,100184.00
2018-08-24T10:29:13.759Z,100183.00
2018-08-24T10:31:44.153Z,100197.00
2018-08-24T10:34:22.238Z,100209.00
2018-08-24T10:36:52.837Z,100263.00
2018-08-24T10:39:23.853Z,100268.00
2018-08-24T10:41:53.830Z,100280.00
2018-08-24T10:44:23.829Z,100297.00
2018-08-24T10:46:54.216Z,100292.00
2018-08-24T10:49:24.676Z,100295.00
2018-08-24T10:51:55.111Z,100300.00
2018-08-24T10:54:26.295Z,100308.00
2018-08-24T10:56:56.927Z,100303.00
2018-08-24T10:59:28.155Z,100301.00
2018-08-24T11:01:59.275Z,100303.00
2018-08-24T11:04:30.011Z,100302.00
2018-08-24T11:07:00.407Z,100309.00
2018-08-24T11:09:31.123Z,100321.00
2018-08-24T11:12:01.391Z,100326.00
2018-08-24T11:14:31.451Z,100309.00
2018-08-24T11:17:02.369Z,100313.00
2018-08-24T11:19:32.975Z,100304.00
2018-08-24T11:22:03.113Z,100308.00
2018-08-24T11:24:33.339Z,100313.00
2018-08-24T11:27:03.791Z,100303.00
2018-08-24T11:29:34.151Z,100301.00
2018-08-24T11:32:04.756Z,100302.00
2018-08-24T11:34:35.328Z,100314.00
2018-08-24T11:37:06.503Z,100315.00
2018-08-24T11:39:38.811Z,100316.00
2018-08-24T11:42:09.856Z,100311.00
2018-08-24T11:44:39.579Z,100307.00
2018-08-24T11:47:09.436Z,100314.00
2018-08-24T11:49:40.313Z,100315.00
2018-08-24T11:52:11.259Z,100317.00
2018-08-24T11:54:41.932Z,100302.00
2018-08-24T11:57:12.671Z,100308.00
2018-08-24T11:59:43.355Z,100300.00
2018-08-24T12:02:13.508Z,100302.00
2018-08-24T12:04:43.271Z,100306.00
2018-08-24T12:07:13.489Z,100298.00
2018-08-24T12:09:43.731Z,100293.00
2018-08-24T12:12:14.285Z,100303.00
2018-08-24T12:14:44.698Z,100290.00
2018-08-24T12:17:18.999Z,100302.00
2018-08-24T12:19:49.927Z,100297.00
2018-08-24T12:22:20.504Z,100289.00
2018-08-24T12:24:50.732Z,100284.00
2018-08-24T12:27:21.146Z,100279.00
2018-08-24T12:29:51.486Z,100289.00
2018-08-24T12:32:21.521Z,100273.00
2018-08-24T12:34:52.430Z,100279.00
2018-08-24T12:37:22.560Z,100279.00
2018-08-24T12:39:52.388Z,100288.00
2018-08-24T12:42:22.573Z,100267.00
2018-08-24T12:44:52.700Z,100271.00
2018-08-24T12:47:23.403Z,100270.00
2018-08-24T12:49:53.456Z,100262.00
2018-08-24T12:52:23.495Z,100261.00
2018-08-24T12:54:54.562Z,100262.00
2018-08-24T12:57:30.030Z,100262.00
2018-08-24T13:00:02.572Z,100256.00
2018-08-24T13:02:33.483Z,100256.00
2018-08-24T13:05:03.978Z,100249.00
2018-08-24T13:07:33.908Z,100248.00
2018-08-24T13:10:03.918Z,100258.00
2018-08-24T13:12:34.212Z,100255.00
2018-08-24T13:15:05.031Z,100253.00
2018-08-24T13:17:35.421Z,100255.00
2018-08-24T13:20:06.573Z,100252.00
2018-08-24T13:22:37.349Z,100261.00
2018-08-24T13:25:07.430Z,100246.00
2018-08-24T13:27:37.788Z,100246.00
2018-08-24T13:30:09.046Z,100246.00
2018-08-24T13:32:39.302Z,100235.00
2018-08-24T13:35:10.279Z,100238.00
2018-08-24T13:37:41.364Z,100234.00
2018-08-24T13:40:12.086Z,100239.00
2018-08-24T13:42:42.875Z,100240.00
2018-08-24T13:45:13.440Z,100230.00
2018-08-24T13:47:44.033Z,100226.00
2018-08-24T13:50:15.045Z,100233.00
2018-08-24T13:52:45.267Z,100243.00
2018-08-24T13:55:15.738Z,100240.00
2018-08-24T13:57:46.393Z,100232.00
2018-08-24T14:00:16.729Z,100229.00
2018-08-24T14:02:47.674Z,100231.00
2018-08-24T14:05:18.062Z,100231.00
2018-08-24T14:07:48.277Z,100232.00
2018-08-24T14:10:18.355Z,100235.00
2018-08-24T14:12:48.146Z,100241.00
2018-08-24T14:15:18.912Z,100230.00
2018-08-24T14:17:52.480Z,100234.00
2018-08-24T14:20:23.884Z,100221.00
2018-08-24T14:22:54.692Z,100217.00
2018-08-24T14:25:25.125Z,100220.00
2018-08-24T14:27:55.323Z,100224.00
2018-08-24T14:30:26.733Z,100226.00
2018-08-24T14:32:57.932Z,100217.00
2018-08-24T14:35:28.111Z,100217.00
2018-08-24T14:37:58.574Z,100209.00
2018-08-24T14:40:28.952Z,100219.00
2018-08-24T14:42:59.196Z,100206.00
2018-08-24T14:45:30.036Z,100215.00
2018-08-24T14:48:02.191Z,100204.00
2018-08-24T14:50:32.768Z,100204.00
2018-08-24T14:53:03.050Z,100203.00
2018-08-24T14:55:35.315Z,100208.00
2018-08-24T14:58:05.956Z,100204.00
2018-08-24T15:00:36.458Z,100207.00
2018-08-24T15:03:07.397Z,100205.00
2018-08-24T15:05:39.096Z,100218.00
2018-08-24T15:08:09.819Z,100203.00
2018-08-24T15:10:40.430Z,100223.00
2018-08-24T15:13:12.313Z,100221.00
2018-08-24T15:15:42.723Z,100220.00
2018-08-24T15:18:13.889Z,100208.00
2018-08-24T15:20:44.074Z,100202.00
2018-08-24T15:23:13.935Z,100219.00
2018-08-24T15:25:43.882Z,100219.00
2018-08-24T15:28:14.308Z,100222.00
2018-08-24T15:30:44.800Z,100219.00
2018-08-24T15:33:15.530Z,100228.00
2018-08-24T15:35:45.824Z,100234.00
2018-08-24T15:38:16.604Z,100228.00
2018-08-24T15:40:46.869Z,100227.00
2018-08-24T15:43:17.320Z,100231.00
2018-08-24T15:45:48.027Z,100231.00
2018-08-24T15:48:18.146Z,100233.00
2018-08-24T15:50:48.260Z,100233.00
2018-08-24T15:53:18.034Z,100238.00
2018-08-24T15:55:48.253Z,100227.00
2018-08-24T15:58:19.166Z,100220.00
2018-08-24T16:00:50.172Z,100219.00
2018-08-24T16:03:21.090Z,100219.00
2018-08-24T16:05:52.313Z,100214.00
2018-08-24T16:08:22.952Z,100224.00
2018-08-24T16:10:53.491Z,100217.00
2018-08-24T16:13:23.882Z,100226.00
2018-08-24T16:15:54.251Z,100210.00
2018-08-24T16:18:25.362Z,100219.00
2018-08-24T16:20:55.755Z,100225.00
2018-08-24T16:23:26.392Z,100212.00
2018-08-24T16:25:56.994Z,100210.00
2018-08-24T16:28:28.038Z,100210.00
2018-08-24T16:30:59.500Z,100219.00
2018-08-24T16:33:30.338Z,100223.00
2018-08-24T16:36:01.558Z,100230.00
2018-08-24T16:38:32.624Z,100222.00
2018-08-24T16:41:03.086Z,100222.00
2018-08-24T16:43:34.104Z,100226.00
2018-08-24T16:46:04.973Z,100227.00
2018-08-24T16:48:35.673Z,100241.00
2018-08-24T16:51:06.437Z,100235.00
2018-08-24T16:53:36.878Z,100249.00
2018-08-24T16:56:08.562Z,100236.00
2018-08-24T16:58:39.601Z,100235.00
2018-08-24T17:01:14.144Z,100230.00
2018-08-24T17:03:47.103Z,100236.00
2018-08-24T17:06:18.234Z,100231.00
2018-08-24T17:08:54.904Z,100238.00
2018-08-24T17:11:30.134Z,100234.00
2018-08-24T17:14:01.881Z,100232.00
2018-08-24T17:16:33.188Z,100240.00
2018-08-24T17:19:04.715Z,100251.00
2018-08-24T17:21:36.117Z,100259.00
2018-08-24T17:24:07.860Z,100264.00
2018-08-24T17:26:39.004Z,100261.00
2018-08-24T17:29:10.842Z,100267.00
2018-08-24T17:31:43.779Z,100272.00
2018-08-24T17:34:15.572Z,100273.00
2018-08-24T17:36:47.239Z,100279.00
2018-08-24T17:39:18.605Z,100277.00
2018-08-24T17:41:49.904Z,100286.00
2018-08-24T17:44:21.803Z,100272.00
2018-08-24T17:46:52.907Z,100275.00
2018-08-24T17:49:29.189Z,100283.00
2018-08-24T17:52:03.138Z,100280.00
2018-08-24T17:54:33.488Z,100288.00
2018-08-24T17:57:03.993Z,100280.00
2018-08-24T17:59:34.660Z,100292.00
2018-08-24T18:02:05.470Z,100295.00
2018-08-24T18:04:36.505Z,100295.00
2018-08-24T18:07:07.872Z,100292.00
2018-08-24T18:09:40.942Z,100299.00
2018-08-24T18:12:11.620Z,100303.00
2018-08-24T18:14:42.174Z,100298.00
2018-08-24T18:17:13.208Z,100300.00
2018-08-24T18:19:43.206Z,100301.00
2018-08-24T18:22:13.571Z,100307.00
2018-08-24T18:24:43.028Z,100305.00
2018-08-24T18:27:13.068Z,100303.00
2018-08-24T18:29:42.723Z,100306.00
2018-08-24T18:32:12.188Z,100297.00
2018-08-24T18:34:43.063Z,100299.00
2018-08-24T18:37:12.430Z,100313.00
2018-08-24T18:39:42.405Z,100299.00
2018-08-24T18:42:12.149Z,100309.00
2018-08-24T18:44:41.728Z,100315.00
2018-08-24T18:47:11.040Z,100326.00
2018-08-24T18:49:40.316Z,100316.00
2018-08-24T18:52:09.742Z,100323.00
2018-08-24T18:54:39.439Z,100313.00
2018-08-24T18:57:08.503Z,100322.00
2018-08-24T18:59:37.847Z,100321.00
2018-08-24T19:02:07.318Z,100326.00
2018-08-24T19:04:36.603Z,100334.00
2018-08-24T19:07:06.432Z,100339.00
2018-08-24T19:09:35.832Z,100320.00
2018-08-24T19:12:10.741Z,100337.00
2018-08-24T19:14:40.020Z,100331.00
2018-08-24T19:17:13.995Z,100341.00
2018-08-24T19:19:49.007Z,100349.00
2018-08-24T19:22:18.447Z,100345.00
2018-08-24T19:24:48.235Z,100358.00
2018-08-24T19:27:17.702Z,100353.00
2018-08-24T19:29:52.294Z,100360.00
2018-08-24T19:32:21.478Z,100362.00
2018-08-24T19:34:50.899Z,100355.00
2018-08-24T19:37:20.199Z,100359.00
2018-08-24T19:39:54.913Z,100360.00
2018-08-24T19:42:25.921Z,100366.00
2018-08-24T19:44:55.757Z,100365.00
2018-08-24T19:47:30.298Z,100371.00
2018-08-24T19:49:59.635Z,100376.00
2018-08-24T19:52:29.328Z,100384.00
2018-08-24T19:54:58.749Z,100372.00
2018-08-24T19:57:33.147Z,100380.00
2018-08-24T20:00:02.613Z,100367.00
2018-08-24T20:02:31.945Z,100367.00
2018-08-24T20:05:01.337Z,100373.00
2018-08-24T20:09:38.911Z,100375.00
2018-08-24T20:12:08.347Z,100375.00
2018-08-24T20:14:43.018Z,100372.00
2018-08-24T20:17:17.781Z,100371.00
2018-08-24T20:19:47.288Z,100370.00
2018-08-24T20:22:17.181Z,100376.00
2018-08-24T20:24:46.629Z,100376.00
2018-08-24T20:27:16.331Z,100386.00
2018-08-24T20:29:47.551Z,100378.00
2018-08-24T20:32:17.641Z,100376.00
2018-08-24T20:34:47.305Z,100379.00
2018-08-24T20:37:16.833Z,100372.00
2018-08-24T20:39:46.234Z,100375.00
2018-08-24T20:42:19.677Z,100367.00
2018-08-24T20:44:49.512Z,100367.00
2018-08-24T20:47:19.361Z,100372.00
2018-08-24T20:49:49.635Z,100369.00
2018-08-24T20:52:19.153Z,100359.00
2018-08-24T20:54:49.310Z,100359.00
2018-08-24T20:57:18.574Z,100361.00
2018-08-24T20:59:48.346Z,100360.00
2018-08-24T21:02:17.707Z,100357.00
2018-08-24T21:04:46.883Z,100360.00
2018-08-24T21:07:16.262Z,100370.00
2018-08-24T21:09:46.592Z,100362.00
2018-08-24T21:12:16.659Z,100371.00
2018-08-24T21:14:47.651Z,100373.00
2018-08-24T21:17:16.980Z,100371.00
2018-08-24T21:19:46.048Z,100366.00
2018-08-24T21:22:15.131Z,100367.00
2018-08-24T21:24:44.757Z,100369.00
2018-08-24T21:27:14.578Z,100366.00
2018-08-24T21:29:44.326Z,100364.00
2018-08-24T21:32:13.521Z,100366.00
2018-08-24T21:34:42.829Z,100369.00
2018-08-24T21:37:12.047Z,100372.00
2018-08-24T21:39:41.365Z,100369.00
2018-08-24T21:42:10.938Z,100361.00
2018-08-24T21:44:40.292Z,100366.00
2018-08-24T21:47:10.003Z,100353.00
2018-08-24T21:49:39.632Z,100351.00
2018-08-24T21:52:09.064Z,100352.00
2018-08-24T21:54:38.761Z,100350.00
2018-08-24T21:57:08.029Z,100342.00
2018-08-24T21:59:37.474Z,100349.00
2018-08-24T22:02:06.844Z,100346.00
2018-08-24T22:04:36.372Z,100343.00
2018-08-24T22:07:05.728Z,100347.00
2018-08-24T22:09:35.314Z,100348.00
2018-08-24T22:12:04.936Z,100336.00
2018-08-24T22:14:34.346Z,100345.00
2018-08-24T22:17:03.580Z,100343.00
2018-08-24T22:19:33.107Z,100334.00
2018-08-24T22:22:02.493Z,100334.00
2018-08-24T22:24:32.037Z,100333.00
2018-08-24T22:27:01.664Z,100322.00
2018-08-24T22:29:30.851Z,100339.00
2018-08-24T22:31:59.925Z,100317.00
2018-08-24T22:34:30.079Z,100335.00
2018-08-24T22:36:59.447Z,100331.00
2018-08-24T22:39:29.216Z,100324.00
2018-08-24T22:41:58.280Z,100330.00
2018-08-24T22:44:27.393Z,100320.00
2018-08-24T22:46:57.207Z,100308.00
2018-08-24T22:49:26.429Z,100308.00
2018-08-24T22:51:55.965Z,100306.00
2018-08-24T22:54:26.008Z,100325.00
2018-08-24T22:56:57.238Z,100332.00
2018-08-24T22:59:28.053Z,100325.00
2018-08-24T23:01:57.534Z,100321.00
2018-08-24T23:04:27.723Z,100315.00
2018-08-24T23:06:57.595Z,100309.00
2018-08-24T23:09:26.902Z,100300.00
2018-08-24T23:11:57.127Z,100301.00
2018-08-24T23:14:26.529Z,100300.00
2018-08-24T23:16:55.953Z,100297.00
2018-08-24T23:19:25.144Z,100302.00
2018-08-24T23:21:54.421Z,100304.00
2018-08-24T23:24:23.560Z,100298.00
2018-08-24T23:26:52.707Z,100310.00
2018-08-24T23:29:21.931Z,100311.00
2018-08-24T23:31:51.395Z,100309.00
2018-08-24T23:34:20.645Z,100312.00
2018-08-24T23:36:49.731Z,100297.00
2018-08-24T23:39:19.501Z,100300.00
2018-08-24T23:41:48.501Z,100291.00
2018-08-24T23:44:17.973Z,100294.00
2018-08-24T23:46:47.684Z,100294.00
2018-08-24T23:49:17.009Z,100293.00
2018-08-24T23:51:46.453Z,100281.00
2018-08-24T23:54:15.853Z,100285.00
2018-08-24T23:56:45.181Z,100288.00
2018-08-24T23:59:14.985Z,100285.00
